createdAt,value
2023-03-31T00:02:07.284Z,12.04
2023-03-31T00:04:36.224Z,12.17
2023-03-31T00:07:05.923Z,12.10
2023-03-31T00:09:33.427Z,12.18
2023-03-31T00:12:00.672Z,12.17
2023-03-31T00:14:27.933Z,12.16
2023-03-31T00:16:55.302Z,12.17
2023-03-31T00:19:22.654Z,12.19
2023-03-31T00:21:51.575Z,12.11
2023-03-31T00:24:19.210Z,12.16
2023-03-31T00:26:46.529Z,12.15
2023-03-31T00:29:14.343Z,12.09
2023-03-31T00:31:41.953Z,12.27
2023-03-31T00:34:09.549Z,12.21
2023-03-31T00:36:47.285Z,12.26
2023-03-31T00:39:17.877Z,12.25
2023-03-31T00:41:45.705Z,12.22
2023-03-31T00:44:14.887Z,12.20
2023-03-31T00:46:45.168Z,12.27
2023-03-31T00:49:16.178Z,12.31
2023-03-31T00:51:44.330Z,12.21
2023-03-31T00:54:11.692Z,12.19
2023-03-31T00:56:42.587Z,12.26
2023-03-31T00:59:11.940Z,12.20
2023-03-31T01:01:42.898Z,12.25
2023-03-31T01:04:11.500Z,12.29
2023-03-31T01:06:46.524Z,12.22
2023-03-31T01:09:14.597Z,12.13
2023-03-31T01:11:44.812Z,12.07
2023-03-31T01:14:12.064Z,12.09
2023-03-31T01:16:39.743Z,12.04
2023-03-31T01:19:13.074Z,12.04
2023-03-31T01:21:59.774Z,12.02
2023-03-31T01:24:53.849Z,12.08
2023-03-31T01:27:30.017Z,12.02
2023-03-31T01:30:12.368Z,11.94
2023-03-31T01:32:55.978Z,11.88
2023-03-31T01:35:37.864Z,11.77
2023-03-31T01:38:31.315Z,11.77
2023-03-31T01:41:15.935Z,11.74
2023-03-31T01:43:48.485Z,11.59
2023-03-31T01:46:21.464Z,11.60
2023-03-31T01:48:55.156Z,11.55
2023-03-31T01:51:28.973Z,11.48
2023-03-31T01:54:00.327Z,11.36
2023-03-31T01:56:32.351Z,11.36
2023-03-31T01:59:02.803Z,11.32
2023-03-31T02:01:32.021Z,11.39
2023-03-31T02:04:01.578Z,11.32
2023-03-31T02:06:31.967Z,11.37
2023-03-31T02:09:02.202Z,11.22
2023-03-31T02:11:31.945Z,11.19
2023-03-31T02:14:02.297Z,11.22
2023-03-31T02:16:32.256Z,11.08
2023-03-31T02:19:03.633Z,11.06
2023-03-31T02:21:32.149Z,10.89
2023-03-31T02:24:00.858Z,10.81
2023-03-31T02:26:29.744Z,10.76
2023-03-31T02:28:58.396Z,10.72
2023-03-31T02:31:29.728Z,10.84
2023-03-31T02:33:57.277Z,10.71
2023-03-31T02:36:25.327Z,10.76
2023-03-31T02:38:54.541Z,10.61
2023-03-31T02:41:22.024Z,10.80
2023-03-31T02:43:49.291Z,10.62
2023-03-31T02:46:17.962Z,10.61
2023-03-31T02:48:48.007Z,10.59
2023-03-31T02:51:26.426Z,10.37
2023-03-31T02:54:03.204Z,10.25
2023-03-31T02:56:45.402Z,10.12
2023-03-31T02:59:32.346Z,10.28
2023-03-31T03:02:15.246Z,10.34
2023-03-31T03:04:50.729Z,10.30
2023-03-31T03:07:26.623Z,10.25
2023-03-31T03:09:58.798Z,10.24
2023-03-31T03:12:26.971Z,10.28
2023-03-31T03:14:56.761Z,10.22
2023-03-31T03:17:27.657Z,10.21
2023-03-31T03:19:56.133Z,10.12
2023-03-31T03:22:23.823Z,10.09
2023-03-31T03:24:52.200Z,10.12
2023-03-31T03:27:19.544Z,10.02
2023-03-31T03:29:47.570Z,10.07
2023-03-31T03:32:15.229Z,10.07
2023-03-31T03:34:43.990Z,10.09
2023-03-31T03:37:11.599Z,10.15
2023-03-31T03:39:38.868Z,10.23
2023-03-31T03:42:06.246Z,10.30
2023-03-31T03:44:33.506Z,10.27
2023-03-31T03:47:00.787Z,10.27
2023-03-31T03:49:28.065Z,10.48
2023-03-31T03:51:56.810Z,10.44
2023-03-31T03:54:24.092Z,10.52
2023-03-31T03:56:51.412Z,10.64
2023-03-31T03:59:18.678Z,10.71
2023-03-31T04:01:45.987Z,10.65
2023-03-31T04:04:13.323Z,10.68
2023-03-31T04:06:40.655Z,10.81
2023-03-31T04:09:09.309Z,10.94
2023-03-31T04:11:36.630Z,10.91
2023-03-31T04:14:03.884Z,10.90
2023-03-31T04:16:32.345Z,10.86
2023-03-31T04:19:03.657Z,10.72
2023-03-31T04:21:34.576Z,10.78
2023-03-31T04:24:04.384Z,10.68
2023-03-31T04:26:42.763Z,10.64
2023-03-31T04:29:10.541Z,10.65
2023-03-31T04:31:42.718Z,10.70
2023-03-31T04:34:13.120Z,10.74
2023-03-31T04:36:42.595Z,10.61
2023-03-31T04:39:11.640Z,10.64
2023-03-31T04:41:40.312Z,10.51
2023-03-31T04:44:07.588Z,10.52
2023-03-31T04:46:35.396Z,10.64
2023-03-31T04:49:02.912Z,10.71
2023-03-31T04:51:30.426Z,10.72
2023-03-31T04:53:57.696Z,10.79
2023-03-31T04:56:25.013Z,10.74
2023-03-31T04:58:53.600Z,10.85
2023-03-31T05:01:21.089Z,10.98
2023-03-31T05:03:48.581Z,11.04
2023-03-31T05:06:16.321Z,11.12
2023-03-31T05:08:43.972Z,11.24
2023-03-31T05:11:11.396Z,11.20
2023-03-31T05:13:38.850Z,11.17
2023-03-31T05:16:12.215Z,11.16
2023-03-31T05:18:39.611Z,11.13
2023-03-31T05:21:10.693Z,11.12
2023-03-31T05:23:37.986Z,11.07
2023-03-31T05:26:06.130Z,11.00
2023-03-31T05:28:33.551Z,11.07
2023-03-31T05:31:01.386Z,11.09
2023-03-31T05:33:30.135Z,11.11
2023-03-31T05:35:57.648Z,11.13
2023-03-31T05:38:25.015Z,11.11
2023-03-31T05:40:52.284Z,11.26
2023-03-31T05:43:19.521Z,11.30
2023-03-31T05:45:46.798Z,11.47
2023-03-31T05:48:14.131Z,11.58
2023-03-31T05:50:44.040Z,11.81
2023-03-31T05:53:11.309Z,12.00
2023-03-31T05:55:38.918Z,12.24
2023-03-31T05:58:06.699Z,12.33
2023-03-31T06:00:34.086Z,12.39
2023-03-31T06:03:01.440Z,12.40
2023-03-31T06:05:31.121Z,12.44
2023-03-31T06:07:59.759Z,12.50
2023-03-31T06:10:27.027Z,12.62
2023-03-31T06:12:54.414Z,12.67
2023-03-31T06:15:21.702Z,12.67
2023-03-31T06:17:49.004Z,12.79
2023-03-31T06:20:27.285Z,12.80
2023-03-31T06:22:55.359Z,12.89
2023-03-31T06:25:24.003Z,12.88
2023-03-31T06:27:51.264Z,12.88
2023-03-31T06:30:18.507Z,12.85
2023-03-31T06:32:45.865Z,12.88
2023-03-31T06:35:13.154Z,13.05
2023-03-31T06:37:40.392Z,13.10
2023-03-31T06:40:08.627Z,13.25
2023-03-31T06:42:37.209Z,13.27
2023-03-31T06:45:04.518Z,13.40
2023-03-31T06:47:31.798Z,13.55
2023-03-31T06:49:59.090Z,13.93
2023-03-31T06:52:26.368Z,14.35
2023-03-31T06:54:53.626Z,14.63
2023-03-31T06:57:21.278Z,15.07
2023-03-31T06:59:49.955Z,15.17
2023-03-31T07:02:17.285Z,15.18
2023-03-31T07:04:44.597Z,15.25
2023-03-31T07:07:11.978Z,15.35
2023-03-31T07:09:39.264Z,15.11
2023-03-31T07:12:06.623Z,15.03
2023-03-31T07:14:34.147Z,14.81
2023-03-31T07:17:03.192Z,14.80
2023-03-31T07:19:30.460Z,14.82
2023-03-31T07:21:57.716Z,14.58
2023-03-31T07:24:25.051Z,14.49
2023-03-31T07:26:52.326Z,14.52
2023-03-31T07:29:20.461Z,14.39
2023-03-31T07:31:47.924Z,14.32
2023-03-31T07:34:16.651Z,14.36
2023-03-31T07:36:43.960Z,14.37
2023-03-31T07:39:11.249Z,14.48
2023-03-31T07:41:38.603Z,14.64
2023-03-31T07:44:05.897Z,15.07
2023-03-31T07:46:33.233Z,15.43
2023-03-31T07:49:03.061Z,15.69
2023-03-31T07:51:31.808Z,15.79
2023-03-31T07:53:59.077Z,15.92
2023-03-31T07:56:26.878Z,15.69
2023-03-31T07:58:57.391Z,15.78
2023-03-31T08:01:26.201Z,15.48
2023-03-31T08:03:54.514Z,15.75
2023-03-31T08:06:22.972Z,15.70
2023-03-31T08:08:51.633Z,15.44
2023-03-31T08:11:21.041Z,15.57
2023-03-31T08:13:48.350Z,15.54
2023-03-31T08:16:15.685Z,15.51
2023-03-31T08:18:42.983Z,15.39
2023-03-31T08:21:10.675Z,15.32
2023-03-31T08:23:38.020Z,15.45
2023-03-31T08:26:10.252Z,15.37
2023-03-31T08:28:37.522Z,15.44
2023-03-31T08:31:05.878Z,15.44
2023-03-31T08:33:33.376Z,15.39
2023-03-31T08:36:02.969Z,15.45
2023-03-31T08:38:30.382Z,15.31
2023-03-31T08:41:01.500Z,15.20
2023-03-31T08:43:32.092Z,15.31
2023-03-31T08:45:59.686Z,14.93
2023-03-31T08:48:29.220Z,14.81
2023-03-31T08:50:59.667Z,14.98
2023-03-31T08:53:29.288Z,15.03
2023-03-31T08:55:57.688Z,15.04
2023-03-31T08:58:33.201Z,15.01
2023-03-31T09:01:02.576Z,15.06
2023-03-31T09:03:32.489Z,14.97
2023-03-31T09:06:02.982Z,14.69
2023-03-31T09:08:34.721Z,14.74
2023-03-31T09:11:06.481Z,14.77
2023-03-31T09:13:48.357Z,14.77
2023-03-31T09:16:16.998Z,14.53
2023-03-31T09:18:46.810Z,14.54
2023-03-31T09:21:17.384Z,14.34
2023-03-31T09:23:47.530Z,14.49
2023-03-31T09:26:19.601Z,14.57
2023-03-31T09:28:48.218Z,14.51
2023-03-31T09:31:16.964Z,14.58
2023-03-31T09:33:46.126Z,14.47
2023-03-31T09:36:16.367Z,14.37
2023-03-31T09:38:44.475Z,14.46
2023-03-31T09:41:13.080Z,14.52
2023-03-31T09:43:41.366Z,14.59
2023-03-31T09:46:16.784Z,14.50
2023-03-31T09:48:48.388Z,14.75
2023-03-31T09:51:19.098Z,14.85
2023-03-31T09:53:48.268Z,14.91
2023-03-31T09:56:32.412Z,14.79
2023-03-31T09:59:02.318Z,14.80
2023-03-31T10:01:31.559Z,14.57
2023-03-31T10:03:58.984Z,14.48
2023-03-31T10:06:26.836Z,14.61
2023-03-31T10:08:55.946Z,14.33
2023-03-31T10:11:23.441Z,14.42
2023-03-31T10:13:58.708Z,14.41
2023-03-31T10:16:29.363Z,14.51
2023-03-31T10:19:12.148Z,14.62
2023-03-31T10:21:39.549Z,14.46
2023-03-31T10:24:09.312Z,14.32
2023-03-31T10:26:36.817Z,14.18
2023-03-31T10:29:11.390Z,14.00
2023-03-31T10:31:38.938Z,14.08
2023-03-31T10:34:08.755Z,13.98
2023-03-31T10:36:36.494Z,13.83
2023-03-31T10:39:06.473Z,14.12
2023-03-31T10:41:34.282Z,14.19
2023-03-31T10:44:03.080Z,14.15
2023-03-31T10:46:44.110Z,14.17
2023-03-31T10:49:25.371Z,14.26
2023-03-31T10:51:53.372Z,14.15
2023-03-31T10:54:21.427Z,14.27
2023-03-31T10:56:51.910Z,14.32
2023-03-31T10:59:33.860Z,14.18
2023-03-31T11:02:21.095Z,14.26
2023-03-31T11:05:02.767Z,14.35
2023-03-31T11:07:39.438Z,14.49
2023-03-31T11:10:30.542Z,14.67
2023-03-31T11:13:00.623Z,14.51
2023-03-31T11:15:31.022Z,14.33
2023-03-31T11:18:04.411Z,14.33
2023-03-31T11:20:37.637Z,14.11
2023-03-31T11:23:11.483Z,14.19
2023-03-31T11:25:41.117Z,14.08
2023-03-31T11:28:26.217Z,14.15
2023-03-31T11:30:55.441Z,14.26
2023-03-31T11:33:46.639Z,13.91
2023-03-31T11:36:22.216Z,14.08
2023-03-31T11:38:56.863Z,14.12
2023-03-31T11:41:27.345Z,13.95
2023-03-31T11:43:56.473Z,13.91
2023-03-31T11:46:26.076Z,13.99
2023-03-31T11:48:57.396Z,14.05
2023-03-31T11:51:27.767Z,13.79
2023-03-31T11:53:57.187Z,13.70
2023-03-31T11:56:36.217Z,13.41
2023-03-31T11:59:04.276Z,13.44
2023-03-31T12:01:34.904Z,13.43
2023-03-31T12:04:04.992Z,13.03
2023-03-31T12:06:35.990Z,12.74
2023-03-31T12:09:07.684Z,13.09
2023-03-31T12:11:38.967Z,12.93
2023-03-31T12:14:12.417Z,13.12
2023-03-31T12:16:42.187Z,13.04
2023-03-31T12:19:12.532Z,13.08
2023-03-31T12:21:44.322Z,13.16
2023-03-31T12:24:12.922Z,13.15
2023-03-31T12:26:45.625Z,13.28
2023-03-31T12:29:18.623Z,13.24
2023-03-31T12:31:47.021Z,13.34
2023-03-31T12:34:17.352Z,13.34
2023-03-31T12:36:54.855Z,13.34
2023-03-31T12:39:28.528Z,13.31
2023-03-31T12:42:05.027Z,13.38
2023-03-31T12:44:39.590Z,13.41
2023-03-31T12:47:18.509Z,13.41
2023-03-31T12:49:52.780Z,13.41
2023-03-31T12:52:26.480Z,13.46
2023-03-31T12:55:21.623Z,13.29
2023-03-31T12:57:48.920Z,13.37
2023-03-31T13:00:24.645Z,13.40
2023-03-31T13:02:52.191Z,13.31
2023-03-31T13:05:45.416Z,13.15
2023-03-31T13:08:33.946Z,13.19
2023-03-31T13:11:01.339Z,13.23
2023-03-31T13:13:28.612Z,13.25
2023-03-31T13:15:56.823Z,13.16
2023-03-31T13:18:24.632Z,13.15
2023-03-31T13:20:59.492Z,13.16
2023-03-31T13:23:31.393Z,13.14
2023-03-31T13:25:59.378Z,13.24
2023-03-31T13:28:33.752Z,13.23
2023-03-31T13:31:02.945Z,13.24
2023-03-31T13:33:44.398Z,13.28
2023-03-31T13:36:30.488Z,13.30
2023-03-31T13:39:06.311Z,13.38
2023-03-31T13:41:41.277Z,13.46
2023-03-31T13:44:17.700Z,13.68
2023-03-31T13:46:51.791Z,14.08
2023-03-31T13:49:36.699Z,14.28
2023-03-31T13:52:05.497Z,14.20
2023-03-31T13:54:46.039Z,14.06
2023-03-31T13:57:32.246Z,14.06
2023-03-31T14:00:12.288Z,13.57
2023-03-31T14:02:53.672Z,13.69
2023-03-31T14:05:26.405Z,13.64
2023-03-31T14:07:55.576Z,13.35
2023-03-31T14:10:25.766Z,13.47
2023-03-31T14:12:53.203Z,13.36
2023-03-31T14:15:21.570Z,13.19
2023-03-31T14:17:49.001Z,13.28
2023-03-31T14:20:27.275Z,13.43
2023-03-31T14:23:00.332Z,13.45
2023-03-31T14:25:37.133Z,13.75
2023-03-31T14:28:13.649Z,13.89
2023-03-31T14:30:46.763Z,14.04
2023-03-31T14:33:19.370Z,14.31
2023-03-31T14:35:53.538Z,14.43
2023-03-31T14:38:22.233Z,14.47
2023-03-31T14:40:53.821Z,14.41
2023-03-31T14:43:22.006Z,14.52
2023-03-31T14:45:57.882Z,14.59
2023-03-31T14:48:25.307Z,14.76
2023-03-31T14:50:57.798Z,14.73
2023-03-31T14:53:26.289Z,14.48
2023-03-31T14:55:59.175Z,14.71
2023-03-31T14:58:28.934Z,14.81
2023-03-31T15:00:56.444Z,14.84
2023-03-31T15:03:26.077Z,14.75
2023-03-31T15:05:57.146Z,14.60
2023-03-31T15:08:25.096Z,14.73
2023-03-31T15:11:02.282Z,14.76
2023-03-31T15:13:44.319Z,14.80
2023-03-31T15:16:20.566Z,14.74
2023-03-31T15:18:48.502Z,14.54
2023-03-31T15:21:20.995Z,14.32
2023-03-31T15:23:48.302Z,14.57
2023-03-31T15:26:22.580Z,14.53
2023-03-31T15:28:55.250Z,14.56
2023-03-31T15:31:22.886Z,14.52
2023-03-31T15:33:50.598Z,14.33
2023-03-31T15:36:18.021Z,14.35
2023-03-31T15:38:45.390Z,14.37
2023-03-31T15:41:13.339Z,14.34
2023-03-31T15:43:46.019Z,14.30
2023-03-31T15:46:19.350Z,14.08
2023-03-31T15:48:51.068Z,14.17
2023-03-31T15:51:20.337Z,14.13
2023-03-31T15:53:49.206Z,14.12
2023-03-31T15:56:27.061Z,14.17
2023-03-31T15:58:56.070Z,14.38
2023-03-31T16:01:29.339Z,14.56
2023-03-31T16:03:57.310Z,14.82
2023-03-31T16:06:30.538Z,15.03
2023-03-31T16:09:01.096Z,15.15
2023-03-31T16:11:34.029Z,15.00
2023-03-31T16:14:06.540Z,14.75
2023-03-31T16:16:35.504Z,14.79
2023-03-31T16:19:04.853Z,14.90
2023-03-31T16:21:36.896Z,14.83
2023-03-31T16:24:04.428Z,14.66
2023-03-31T16:26:32.895Z,14.50
2023-03-31T16:29:01.593Z,14.23
2023-03-31T16:31:30.412Z,14.15
2023-03-31T16:33:59.077Z,14.17
2023-03-31T16:36:27.198Z,14.00
2023-03-31T16:38:55.334Z,13.75
2023-03-31T16:41:23.896Z,13.77
2023-03-31T16:43:52.430Z,13.75
2023-03-31T16:46:19.882Z,13.63
2023-03-31T16:48:47.243Z,13.61
2023-03-31T16:51:17.135Z,13.35
2023-03-31T16:53:45.036Z,13.13
2023-03-31T16:56:13.593Z,13.26
2023-03-31T16:58:41.395Z,12.90
2023-03-31T17:01:09.288Z,13.07
2023-03-31T17:03:38.383Z,12.80
2023-03-31T17:06:07.021Z,12.52
2023-03-31T17:08:35.693Z,12.40
2023-03-31T17:11:03.955Z,12.40
2023-03-31T17:13:35.467Z,12.31
2023-03-31T17:16:16.240Z,12.18
2023-03-31T17:18:46.469Z,12.20
2023-03-31T17:21:15.062Z,12.18
2023-03-31T17:23:43.672Z,12.29
2023-03-31T17:26:12.577Z,11.93
2023-03-31T17:28:40.384Z,12.11
2023-03-31T17:31:11.828Z,11.82
2023-03-31T17:33:40.021Z,11.93
2023-03-31T17:36:07.570Z,11.88
2023-03-31T17:38:34.930Z,11.73
2023-03-31T17:41:05.454Z,11.74
2023-03-31T17:43:33.282Z,11.69
2023-03-31T17:46:04.236Z,11.68
2023-03-31T17:48:33.950Z,11.51
2023-03-31T17:51:04.514Z,11.51
2023-03-31T17:53:31.780Z,11.54
2023-03-31T17:55:59.090Z,11.50
2023-03-31T17:58:28.208Z,11.45
2023-03-31T18:00:55.618Z,11.48
2023-03-31T18:03:22.915Z,11.53
2023-03-31T18:05:50.645Z,11.37
2023-03-31T18:08:17.930Z,11.33
2023-03-31T18:10:45.810Z,11.38
2023-03-31T18:13:13.625Z,11.42
2023-03-31T18:15:49.034Z,11.45
2023-03-31T18:18:16.550Z,11.41
2023-03-31T18:20:44.571Z,11.50
2023-03-31T18:23:12.006Z,11.39
2023-03-31T18:25:39.347Z,11.37
2023-03-31T18:28:06.766Z,11.46
2023-03-31T18:30:34.291Z,11.25
2023-03-31T18:33:03.114Z,11.32
2023-03-31T18:35:30.553Z,11.43
2023-03-31T18:37:58.067Z,11.52
2023-03-31T18:40:25.353Z,11.58
2023-03-31T18:42:52.645Z,11.56
2023-03-31T18:45:19.912Z,11.63
2023-03-31T18:47:47.552Z,11.58
2023-03-31T18:50:16.256Z,11.43
2023-03-31T18:52:43.643Z,11.42
2023-03-31T18:55:11.020Z,11.60
2023-03-31T18:57:38.339Z,11.52
2023-03-31T19:00:07.030Z,11.35
2023-03-31T19:02:34.506Z,11.57
2023-03-31T19:05:03.418Z,11.43
2023-03-31T19:07:32.234Z,11.39
2023-03-31T19:09:59.531Z,11.48
2023-03-31T19:12:27.239Z,11.42
2023-03-31T19:14:54.501Z,11.54
2023-03-31T19:17:22.134Z,11.50
2023-03-31T19:19:49.644Z,11.55
2023-03-31T19:22:17.121Z,11.59
2023-03-31T19:24:45.923Z,11.75
2023-03-31T19:27:13.612Z,11.93
2023-03-31T19:29:40.989Z,12.02
2023-03-31T19:32:08.487Z,11.95
2023-03-31T19:34:36.338Z,11.99
2023-03-31T19:37:04.117Z,12.02
2023-03-31T19:39:32.341Z,11.96
2023-03-31T19:42:02.078Z,12.06
2023-03-31T19:44:29.750Z,12.01
2023-03-31T19:47:00.492Z,12.06
2023-03-31T19:49:27.798Z,12.04
2023-03-31T19:51:55.873Z,12.14
2023-03-31T19:54:23.254Z,12.18
2023-03-31T19:56:50.637Z,12.17
2023-03-31T19:59:19.262Z,12.21
2023-03-31T20:01:46.659Z,12.12
2023-03-31T20:04:17.110Z,11.96
2023-03-31T20:06:45.287Z,12.08
2023-03-31T20:09:13.407Z,12.08
2023-03-31T20:11:43.211Z,12.00
2023-03-31T20:14:11.192Z,12.09
2023-03-31T20:16:39.916Z,12.00
2023-03-31T20:19:07.779Z,12.03
2023-03-31T20:21:36.500Z,11.96
2023-03-31T20:24:04.365Z,12.07
2023-03-31T20:26:32.880Z,12.10
2023-03-31T20:29:01.835Z,11.96
2023-03-31T20:31:31.406Z,11.85
2023-03-31T20:34:03.382Z,11.87
2023-03-31T20:36:31.857Z,11.90
2023-03-31T20:39:00.166Z,11.95
2023-03-31T20:41:28.853Z,11.82
2023-03-31T20:43:56.613Z,11.78
2023-03-31T20:46:23.927Z,11.93
2023-03-31T20:48:52.207Z,11.84
2023-03-31T20:51:22.123Z,11.66
2023-03-31T20:53:50.215Z,11.67
2023-03-31T20:56:18.339Z,11.54
2023-03-31T20:58:46.356Z,11.65
2023-03-31T21:01:14.091Z,11.59
2023-03-31T21:03:41.591Z,11.50
2023-03-31T21:06:11.621Z,11.65
2023-03-31T21:08:41.636Z,11.67
2023-03-31T21:11:09.864Z,11.66
2023-03-31T21:13:37.168Z,11.77
2023-03-31T21:16:04.786Z,11.37
2023-03-31T21:18:32.889Z,11.57
2023-03-31T21:21:00.963Z,11.67
2023-03-31T21:23:29.223Z,11.59
2023-03-31T21:25:58.885Z,11.63
2023-03-31T21:28:27.283Z,11.63
2023-03-31T21:30:55.880Z,11.61
2023-03-31T21:33:24.123Z,11.60
2023-03-31T21:35:52.005Z,11.69
2023-03-31T21:38:20.073Z,11.57
2023-03-31T21:40:48.258Z,11.54
2023-03-31T21:43:16.912Z,11.41
2023-03-31T21:45:44.194Z,11.48
2023-03-31T21:48:12.460Z,11.67
2023-03-31T21:50:40.430Z,11.68
2023-03-31T21:53:08.389Z,11.65
2023-03-31T21:55:37.189Z,11.50
2023-03-31T21:58:05.462Z,11.56
2023-03-31T22:00:35.857Z,11.71
2023-03-31T22:03:22.250Z,11.46
2023-03-31T22:05:50.532Z,11.53
2023-03-31T22:08:17.806Z,11.43
2023-03-31T22:10:48.317Z,11.64
2023-03-31T22:13:15.859Z,11.39
2023-03-31T22:15:44.527Z,11.63
2023-03-31T22:18:12.501Z,11.57
2023-03-31T22:20:40.145Z,11.51
2023-03-31T22:23:07.798Z,11.58
2023-03-31T22:25:35.328Z,11.58
2023-03-31T22:28:05.155Z,11.58
2023-03-31T22:30:33.924Z,11.46
2023-03-31T22:33:02.565Z,11.56
2023-03-31T22:35:29.963Z,11.58
2023-03-31T22:37:57.229Z,11.60
2023-03-31T22:40:24.650Z,11.62
2023-03-31T22:42:54.803Z,11.62
2023-03-31T22:45:22.164Z,11.50
2023-03-31T22:47:49.441Z,11.65
2023-03-31T22:50:18.124Z,11.47
2023-03-31T22:52:46.033Z,11.54
2023-03-31T22:55:13.313Z,11.59
2023-03-31T22:57:40.601Z,11.51
2023-03-31T23:00:09.102Z,11.55
2023-03-31T23:02:36.455Z,11.66
2023-03-31T23:05:03.776Z,11.54
2023-03-31T23:07:32.564Z,11.63
2023-03-31T23:09:59.845Z,11.65
2023-03-31T23:12:27.798Z,11.67
2023-03-31T23:14:55.616Z,11.66
2023-03-31T23:17:22.913Z,11.53
2023-03-31T23:19:50.465Z,11.74
2023-03-31T23:22:18.580Z,11.76
2023-03-31T23:24:49.161Z,11.60
2023-03-31T23:27:18.674Z,11.56
2023-03-31T23:29:46.276Z,11.65
2023-03-31T23:32:14.022Z,11.67
2023-03-31T23:34:42.208Z,11.46
2023-03-31T23:37:09.755Z,11.46
2023-03-31T23:39:38.665Z,11.55
2023-03-31T23:42:07.910Z,11.64
2023-03-31T23:44:37.141Z,11.73
2023-03-31T23:47:04.788Z,11.50
2023-03-31T23:49:32.430Z,11.52
2023-03-31T23:51:59.683Z,11.58
2023-03-31T23:54:27.223Z,11.60
2023-03-31T23:56:54.515Z,11.36
2023-03-31T23:59:23.188Z,11.47
